sensor_id;sensor_type;location;lat;lon;timestamp;temperature;humidity
62809;DHT22;48848;39.002;-94.584;2023-08-07T00:00:24;20.40;53.40
62809;DHT22;48848;39.002;-94.584;2023-08-07T00:02:50;20.40;53.20
62809;DHT22;48848;39.002;-94.584;2023-08-07T00:05:16;20.40;53.10
62809;DHT22;48848;39.002;-94.584;2023-08-07T00:07:42;20.40;53.10
62809;DHT22;48848;39.002;-94.584;2023-08-07T00:10:08;20.40;53.50
62809;DHT22;48848;39.002;-94.584;2023-08-07T00:12:34;20.40;53.40
62809;DHT22;48848;39.002;-94.584;2023-08-07T00:15:01;20.40;53.50
62809;DHT22;48848;39.002;-94.584;2023-08-07T00:17:27;20.40;53.60
62809;DHT22;48848;39.002;-94.584;2023-08-07T00:19:53;20.30;53.60
62809;DHT22;48848;39.002;-94.584;2023-08-07T00:22:19;20.30;53.80
62809;DHT22;48848;39.002;-94.584;2023-08-07T00:24:44;20.40;53.90
62809;DHT22;48848;39.002;-94.584;2023-08-07T00:27:10;20.40;53.80
62809;DHT22;48848;39.002;-94.584;2023-08-07T00:29:38;20.40;53.80
62809;DHT22;48848;39.002;-94.584;2023-08-07T00:32:04;20.40;53.80
62809;DHT22;48848;39.002;-94.584;2023-08-07T00:34:30;20.30;53.90
62809;DHT22;48848;39.002;-94.584;2023-08-07T00:36:56;20.30;53.70
62809;DHT22;48848;39.002;-94.584;2023-08-07T00:39:22;20.30;53.60
62809;DHT22;48848;39.002;-94.584;2023-08-07T00:41:48;20.30;53.50
62809;DHT22;48848;39.002;-94.584;2023-08-07T00:44:14;20.30;53.60
62809;DHT22;48848;39.002;-94.584;2023-08-07T00:46:40;20.30;53.60
62809;DHT22;48848;39.002;-94.584;2023-08-07T00:49:06;20.30;53.50
62809;DHT22;48848;39.002;-94.584;2023-08-07T00:51:33;20.30;53.30
62809;DHT22;48848;39.002;-94.584;2023-08-07T00:53:59;20.30;53.30
62809;DHT22;48848;39.002;-94.584;2023-08-07T00:56:26;20.30;53.20
62809;DHT22;48848;39.002;-94.584;2023-08-07T00:58:52;20.20;53.10
62809;DHT22;48848;39.002;-94.584;2023-08-07T01:01:18;20.20;53.00
62809;DHT22;48848;39.002;-94.584;2023-08-07T01:03:44;20.20;52.80
62809;DHT22;48848;39.002;-94.584;2023-08-07T01:06:10;20.20;52.90
62809;DHT22;48848;39.002;-94.584;2023-08-07T01:08:36;20.20;52.80
62809;DHT22;48848;39.002;-94.584;2023-08-07T01:13:50;20.20;52.80
62809;DHT22;48848;39.002;-94.584;2023-08-07T01:16:20;20.10;52.80
62809;DHT22;48848;39.002;-94.584;2023-08-07T01:18:47;20.10;52.90
62809;DHT22;48848;39.002;-94.584;2023-08-07T01:21:17;20.20;52.90
62809;DHT22;48848;39.002;-94.584;2023-08-07T01:23:45;20.10;52.90
62809;DHT22;48848;39.002;-94.584;2023-08-07T01:26:11;20.10;53.00
62809;DHT22;48848;39.002;-94.584;2023-08-07T01:28:38;20.10;53.00
62809;DHT22;48848;39.002;-94.584;2023-08-07T01:31:07;20.10;53.00
62809;DHT22;48848;39.002;-94.584;2023-08-07T01:34:09;20.20;55.30
62809;DHT22;48848;39.002;-94.584;2023-08-07T01:36:28;20.30;56.90
62809;DHT22;48848;39.002;-94.584;2023-08-07T01:38:58;20.40;57.80
62809;DHT22;48848;39.002;-94.584;2023-08-07T01:41:25;20.50;57.60
62809;DHT22;48848;39.002;-94.584;2023-08-07T01:43:51;20.50;58.10
62809;DHT22;48848;39.002;-94.584;2023-08-07T01:46:18;20.60;58.20
62809;DHT22;48848;39.002;-94.584;2023-08-07T01:48:44;20.70;58.40
62809;DHT22;48848;39.002;-94.584;2023-08-07T01:51:09;20.80;58.00
62809;DHT22;48848;39.002;-94.584;2023-08-07T01:53:36;20.80;56.40
62809;DHT22;48848;39.002;-94.584;2023-08-07T01:56:02;20.70;55.30
62809;DHT22;48848;39.002;-94.584;2023-08-07T01:58:28;20.70;54.60
62809;DHT22;48848;39.002;-94.584;2023-08-07T02:00:54;20.70;54.30
62809;DHT22;48848;39.002;-94.584;2023-08-07T02:03:20;20.60;53.80
62809;DHT22;48848;39.002;-94.584;2023-08-07T02:05:46;20.60;53.60
62809;DHT22;48848;39.002;-94.584;2023-08-07T02:08:12;20.60;53.40
62809;DHT22;48848;39.002;-94.584;2023-08-07T02:10:38;20.50;53.10
62809;DHT22;48848;39.002;-94.584;2023-08-07T02:13:04;20.50;52.80
62809;DHT22;48848;39.002;-94.584;2023-08-07T02:15:29;20.50;52.80
62809;DHT22;48848;39.002;-94.584;2023-08-07T02:17:55;20.40;52.70
62809;DHT22;48848;39.002;-94.584;2023-08-07T02:20:21;20.40;52.60
62809;DHT22;48848;39.002;-94.584;2023-08-07T02:22:47;20.30;52.60
62809;DHT22;48848;39.002;-94.584;2023-08-07T02:25:13;20.30;52.60
62809;DHT22;48848;39.002;-94.584;2023-08-07T02:27:39;20.30;52.60
62809;DHT22;48848;39.002;-94.584;2023-08-07T02:30:05;20.20;52.60
62809;DHT22;48848;39.002;-94.584;2023-08-07T02:32:31;20.20;52.60
62809;DHT22;48848;39.002;-94.584;2023-08-07T02:34:57;20.10;53.00
62809;DHT22;48848;39.002;-94.584;2023-08-07T02:37:23;20.10;52.50
62809;DHT22;48848;39.002;-94.584;2023-08-07T02:39:49;20.10;52.60
62809;DHT22;48848;39.002;-94.584;2023-08-07T02:42:15;20.10;52.50
62809;DHT22;48848;39.002;-94.584;2023-08-07T02:44:41;20.10;53.10
62809;DHT22;48848;39.002;-94.584;2023-08-07T02:47:07;20.20;54.10
62809;DHT22;48848;39.002;-94.584;2023-08-07T02:49:33;20.30;54.60
62809;DHT22;48848;39.002;-94.584;2023-08-07T02:51:59;20.30;55.30
62809;DHT22;48848;39.002;-94.584;2023-08-07T02:54:24;20.40;55.60
62809;DHT22;48848;39.002;-94.584;2023-08-07T02:56:50;20.50;55.80
62809;DHT22;48848;39.002;-94.584;2023-08-07T02:59:16;20.60;56.30
62809;DHT22;48848;39.002;-94.584;2023-08-07T03:01:43;20.70;56.70
62809;DHT22;48848;39.002;-94.584;2023-08-07T03:04:09;20.70;56.90
62809;DHT22;48848;39.002;-94.584;2023-08-07T03:06:35;20.80;57.00
62809;DHT22;48848;39.002;-94.584;2023-08-07T03:09:01;20.80;57.20
62809;DHT22;48848;39.002;-94.584;2023-08-07T03:11:26;20.90;57.00
62809;DHT22;48848;39.002;-94.584;2023-08-07T03:13:52;20.90;56.80
62809;DHT22;48848;39.002;-94.584;2023-08-07T03:16:18;21.00;56.80
62809;DHT22;48848;39.002;-94.584;2023-08-07T03:18:44;21.10;57.00
62809;DHT22;48848;39.002;-94.584;2023-08-07T03:21:10;21.10;56.90
62809;DHT22;48848;39.002;-94.584;2023-08-07T03:23:36;21.10;56.70
62809;DHT22;48848;39.002;-94.584;2023-08-07T03:26:02;21.20;56.80
62809;DHT22;48848;39.002;-94.584;2023-08-07T03:28:28;21.30;57.10
62809;DHT22;48848;39.002;-94.584;2023-08-07T03:30:54;21.30;57.50
62809;DHT22;48848;39.002;-94.584;2023-08-07T03:33:20;21.30;57.70
62809;DHT22;48848;39.002;-94.584;2023-08-07T03:35:46;21.40;57.80
62809;DHT22;48848;39.002;-94.584;2023-08-07T03:38:12;21.40;58.20
62809;DHT22;48848;39.002;-94.584;2023-08-07T03:40:38;21.50;58.10
62809;DHT22;48848;39.002;-94.584;2023-08-07T03:43:03;21.40;55.90
62809;DHT22;48848;39.002;-94.584;2023-08-07T03:45:30;21.30;54.40
62809;DHT22;48848;39.002;-94.584;2023-08-07T03:47:55;21.30;53.80
62809;DHT22;48848;39.002;-94.584;2023-08-07T03:50:21;21.20;53.20
62809;DHT22;48848;39.002;-94.584;2023-08-07T03:52:47;21.10;53.00
62809;DHT22;48848;39.002;-94.584;2023-08-07T03:55:13;21.00;52.50
62809;DHT22;48848;39.002;-94.584;2023-08-07T03:57:39;20.90;52.50
62809;DHT22;48848;39.002;-94.584;2023-08-07T04:00:05;20.90;52.30
62809;DHT22;48848;39.002;-94.584;2023-08-07T04:02:31;20.80;52.30
62809;DHT22;48848;39.002;-94.584;2023-08-07T04:04:57;20.70;52.10
62809;DHT22;48848;39.002;-94.584;2023-08-07T04:07:22;20.70;52.00
62809;DHT22;48848;39.002;-94.584;2023-08-07T04:09:48;20.60;52.00
62809;DHT22;48848;39.002;-94.584;2023-08-07T04:12:14;20.60;52.00
62809;DHT22;48848;39.002;-94.584;2023-08-07T04:14:40;20.60;53.40
62809;DHT22;48848;39.002;-94.584;2023-08-07T04:17:06;20.70;53.90
62809;DHT22;48848;39.002;-94.584;2023-08-07T04:19:32;20.80;54.60
62809;DHT22;48848;39.002;-94.584;2023-08-07T04:21:58;20.80;54.80
62809;DHT22;48848;39.002;-94.584;2023-08-07T04:24:24;20.90;55.10
62809;DHT22;48848;39.002;-94.584;2023-08-07T04:26:50;20.90;55.30
62809;DHT22;48848;39.002;-94.584;2023-08-07T04:29:16;21.00;55.60
62809;DHT22;48848;39.002;-94.584;2023-08-07T04:31:42;21.00;55.90
62809;DHT22;48848;39.002;-94.584;2023-08-07T04:34:08;21.10;56.30
62809;DHT22;48848;39.002;-94.584;2023-08-07T04:36:34;21.10;56.60
62809;DHT22;48848;39.002;-94.584;2023-08-07T04:38:59;21.20;56.90
62809;DHT22;48848;39.002;-94.584;2023-08-07T04:41:25;21.20;56.90
62809;DHT22;48848;39.002;-94.584;2023-08-07T04:43:51;21.30;57.10
62809;DHT22;48848;39.002;-94.584;2023-08-07T04:46:17;21.30;57.10
62809;DHT22;48848;39.002;-94.584;2023-08-07T04:48:43;21.30;57.20
62809;DHT22;48848;39.002;-94.584;2023-08-07T04:51:09;21.40;57.30
62809;DHT22;48848;39.002;-94.584;2023-08-07T04:53:35;21.40;57.20
62809;DHT22;48848;39.002;-94.584;2023-08-07T04:56:00;21.50;57.10
62809;DHT22;48848;39.002;-94.584;2023-08-07T04:58:26;21.50;57.10
62809;DHT22;48848;39.002;-94.584;2023-08-07T05:00:55;21.50;56.80
62809;DHT22;48848;39.002;-94.584;2023-08-07T05:03:22;21.60;56.80
62809;DHT22;48848;39.002;-94.584;2023-08-07T05:05:47;21.60;56.80
62809;DHT22;48848;39.002;-94.584;2023-08-07T05:08:13;21.60;56.90
62809;DHT22;48848;39.002;-94.584;2023-08-07T05:10:39;21.60;57.20
62809;DHT22;48848;39.002;-94.584;2023-08-07T05:13:05;21.70;57.70
62809;DHT22;48848;39.002;-94.584;2023-08-07T05:15:31;21.70;58.00
62809;DHT22;48848;39.002;-94.584;2023-08-07T05:17:57;21.70;58.20
62809;DHT22;48848;39.002;-94.584;2023-08-07T05:20:22;21.70;56.60
62809;DHT22;48848;39.002;-94.584;2023-08-07T05:22:49;21.70;54.20
62809;DHT22;48848;39.002;-94.584;2023-08-07T05:25:15;21.60;53.20
62809;DHT22;48848;39.002;-94.584;2023-08-07T05:27:41;21.50;52.50
62809;DHT22;48848;39.002;-94.584;2023-08-07T05:30:07;21.40;52.10
62809;DHT22;48848;39.002;-94.584;2023-08-07T05:32:33;21.30;51.90
62809;DHT22;48848;39.002;-94.584;2023-08-07T05:35:04;21.20;51.60
62809;DHT22;48848;39.002;-94.584;2023-08-07T05:37:29;21.10;51.50
62809;DHT22;48848;39.002;-94.584;2023-08-07T05:39:57;21.00;51.40
62809;DHT22;48848;39.002;-94.584;2023-08-07T05:42:23;20.90;51.20
62809;DHT22;48848;39.002;-94.584;2023-08-07T05:44:49;20.80;51.00
62809;DHT22;48848;39.002;-94.584;2023-08-07T05:47:15;20.80;52.50
62809;DHT22;48848;39.002;-94.584;2023-08-07T05:49:41;20.90;53.40
62809;DHT22;48848;39.002;-94.584;2023-08-07T05:52:07;21.00;53.90
62809;DHT22;48848;39.002;-94.584;2023-08-07T05:54:33;21.00;54.50
62809;DHT22;48848;39.002;-94.584;2023-08-07T05:56:59;21.10;55.10
62809;DHT22;48848;39.002;-94.584;2023-08-07T05:59:25;21.20;55.50
62809;DHT22;48848;39.002;-94.584;2023-08-07T06:01:51;21.20;55.80
62809;DHT22;48848;39.002;-94.584;2023-08-07T06:04:17;21.20;56.00
62809;DHT22;48848;39.002;-94.584;2023-08-07T06:06:43;21.30;56.30
62809;DHT22;48848;39.002;-94.584;2023-08-07T06:09:09;21.30;56.30
62809;DHT22;48848;39.002;-94.584;2023-08-07T06:11:35;21.40;56.20
62809;DHT22;48848;39.002;-94.584;2023-08-07T06:14:01;21.40;56.30
62809;DHT22;48848;39.002;-94.584;2023-08-07T06:16:26;21.40;56.40
62809;DHT22;48848;39.002;-94.584;2023-08-07T06:18:53;21.50;56.80
62809;DHT22;48848;39.002;-94.584;2023-08-07T06:21:19;21.50;57.20
62809;DHT22;48848;39.002;-94.584;2023-08-07T06:23:45;21.50;57.30
62809;DHT22;48848;39.002;-94.584;2023-08-07T06:26:12;21.60;57.70
62809;DHT22;48848;39.002;-94.584;2023-08-07T06:28:38;21.60;57.80
62809;DHT22;48848;39.002;-94.584;2023-08-07T06:31:05;21.60;57.50
62809;DHT22;48848;39.002;-94.584;2023-08-07T06:33:31;21.60;57.30
62809;DHT22;48848;39.002;-94.584;2023-08-07T06:35:57;21.60;57.30
62809;DHT22;48848;39.002;-94.584;2023-08-07T06:38:23;21.70;57.20
62809;DHT22;48848;39.002;-94.584;2023-08-07T06:40:49;21.70;57.20
62809;DHT22;48848;39.002;-94.584;2023-08-07T06:43:15;21.70;57.30
62809;DHT22;48848;39.002;-94.584;2023-08-07T06:45:40;21.80;57.40
62809;DHT22;48848;39.002;-94.584;2023-08-07T06:48:06;21.80;57.60
62809;DHT22;48848;39.002;-94.584;2023-08-07T06:50:32;21.80;57.90
62809;DHT22;48848;39.002;-94.584;2023-08-07T06:52:58;21.80;58.10
62809;DHT22;48848;39.002;-94.584;2023-08-07T06:55:24;21.80;58.40
62809;DHT22;48848;39.002;-94.584;2023-08-07T06:57:51;21.80;58.50
62809;DHT22;48848;39.002;-94.584;2023-08-07T07:00:17;21.90;58.60
62809;DHT22;48848;39.002;-94.584;2023-08-07T07:02:42;21.90;58.40
62809;DHT22;48848;39.002;-94.584;2023-08-07T07:05:08;21.80;55.00
62809;DHT22;48848;39.002;-94.584;2023-08-07T07:07:34;21.80;53.40
62809;DHT22;48848;39.002;-94.584;2023-08-07T07:10:00;21.60;52.40
62809;DHT22;48848;39.002;-94.584;2023-08-07T07:12:26;21.50;51.90
62809;DHT22;48848;39.002;-94.584;2023-08-07T07:14:52;21.40;51.60
62809;DHT22;48848;39.002;-94.584;2023-08-07T07:17:18;21.30;51.30
62809;DHT22;48848;39.002;-94.584;2023-08-07T07:19:44;21.20;51.10
62809;DHT22;48848;39.002;-94.584;2023-08-07T07:22:10;21.10;51.00
62809;DHT22;48848;39.002;-94.584;2023-08-07T07:24:36;21.10;52.60
62809;DHT22;48848;39.002;-94.584;2023-08-07T07:27:02;21.20;53.30
62809;DHT22;48848;39.002;-94.584;2023-08-07T07:29:28;21.20;53.70
62809;DHT22;48848;39.002;-94.584;2023-08-07T07:31:54;21.30;54.20
62809;DHT22;48848;39.002;-94.584;2023-08-07T07:34:20;21.30;54.70
62809;DHT22;48848;39.002;-94.584;2023-08-07T07:36:46;21.40;55.10
62809;DHT22;48848;39.002;-94.584;2023-08-07T07:39:12;21.40;55.60
62809;DHT22;48848;39.002;-94.584;2023-08-07T07:41:38;21.40;55.50
62809;DHT22;48848;39.002;-94.584;2023-08-07T07:44:04;21.40;55.40
62809;DHT22;48848;39.002;-94.584;2023-08-07T07:46:30;21.50;55.40
62809;DHT22;48848;39.002;-94.584;2023-08-07T07:48:58;21.50;55.30
62809;DHT22;48848;39.002;-94.584;2023-08-07T07:51:24;21.50;55.30
62809;DHT22;48848;39.002;-94.584;2023-08-07T07:53:50;21.60;55.50
62809;DHT22;48848;39.002;-94.584;2023-08-07T07:56:16;21.60;55.40
62809;DHT22;48848;39.002;-94.584;2023-08-07T07:58:42;21.60;55.70
62809;DHT22;48848;39.002;-94.584;2023-08-07T08:01:09;21.60;56.10
62809;DHT22;48848;39.002;-94.584;2023-08-07T08:03:35;21.60;56.10
62809;DHT22;48848;39.002;-94.584;2023-08-07T08:06:01;21.70;56.40
62809;DHT22;48848;39.002;-94.584;2023-08-07T08:08:27;21.70;57.10
62809;DHT22;48848;39.002;-94.584;2023-08-07T08:10:53;21.70;57.50
62809;DHT22;48848;39.002;-94.584;2023-08-07T08:13:19;21.70;57.70
62809;DHT22;48848;39.002;-94.584;2023-08-07T08:15:45;21.80;57.40
62809;DHT22;48848;39.002;-94.584;2023-08-07T08:18:11;21.70;56.90
62809;DHT22;48848;39.002;-94.584;2023-08-07T08:20:37;21.80;57.00
62809;DHT22;48848;39.002;-94.584;2023-08-07T08:23:03;21.80;57.00
62809;DHT22;48848;39.002;-94.584;2023-08-07T08:25:30;21.80;57.30
62809;DHT22;48848;39.002;-94.584;2023-08-07T08:27:56;21.80;57.60
62809;DHT22;48848;39.002;-94.584;2023-08-07T08:30:22;21.80;57.90
62809;DHT22;48848;39.002;-94.584;2023-08-07T08:32:48;21.90;58.30
62809;DHT22;48848;39.002;-94.584;2023-08-07T08:35:14;21.90;58.70
62809;DHT22;48848;39.002;-94.584;2023-08-07T08:37:40;21.90;58.90
62809;DHT22;48848;39.002;-94.584;2023-08-07T08:40:06;21.90;59.10
62809;DHT22;48848;39.002;-94.584;2023-08-07T08:42:33;22.00;59.20
62809;DHT22;48848;39.002;-94.584;2023-08-07T08:44:59;21.90;58.80
62809;DHT22;48848;39.002;-94.584;2023-08-07T08:47:26;22.00;58.70
62809;DHT22;48848;39.002;-94.584;2023-08-07T08:50:02;22.00;58.70
62809;DHT22;48848;39.002;-94.584;2023-08-07T08:52:28;22.00;58.90
62809;DHT22;48848;39.002;-94.584;2023-08-07T08:54:56;22.00;58.60
62809;DHT22;48848;39.002;-94.584;2023-08-07T08:57:22;22.00;58.40
62809;DHT22;48848;39.002;-94.584;2023-08-07T08:59:48;22.00;58.60
62809;DHT22;48848;39.002;-94.584;2023-08-07T09:02:15;22.00;58.90
62809;DHT22;48848;39.002;-94.584;2023-08-07T09:04:41;22.00;59.10
62809;DHT22;48848;39.002;-94.584;2023-08-07T09:07:07;22.00;59.20
62809;DHT22;48848;39.002;-94.584;2023-08-07T09:09:33;22.10;59.70
62809;DHT22;48848;39.002;-94.584;2023-08-07T09:11:59;22.10;59.80
62809;DHT22;48848;39.002;-94.584;2023-08-07T09:14:27;22.10;59.70
62809;DHT22;48848;39.002;-94.584;2023-08-07T09:16:58;22.10;59.40
62809;DHT22;48848;39.002;-94.584;2023-08-07T09:19:25;22.10;59.40
62809;DHT22;48848;39.002;-94.584;2023-08-07T09:21:51;22.10;59.60
62809;DHT22;48848;39.002;-94.584;2023-08-07T09:24:17;22.10;59.40
62809;DHT22;48848;39.002;-94.584;2023-08-07T09:26:45;22.10;59.60
62809;DHT22;48848;39.002;-94.584;2023-08-07T09:29:11;22.10;59.20
62809;DHT22;48848;39.002;-94.584;2023-08-07T09:31:37;22.10;59.20
62809;DHT22;48848;39.002;-94.584;2023-08-07T09:34:03;22.10;59.50
62809;DHT22;48848;39.002;-94.584;2023-08-07T09:36:30;22.10;59.70
62809;DHT22;48848;39.002;-94.584;2023-08-07T09:39:00;22.10;59.50
62809;DHT22;48848;39.002;-94.584;2023-08-07T09:41:26;22.10;59.60
62809;DHT22;48848;39.002;-94.584;2023-08-07T09:43:53;22.20;60.00
62809;DHT22;48848;39.002;-94.584;2023-08-07T09:46:19;22.20;60.00
62809;DHT22;48848;39.002;-94.584;2023-08-07T09:48:45;22.20;59.70
62809;DHT22;48848;39.002;-94.584;2023-08-07T09:51:11;22.20;59.60
62809;DHT22;48848;39.002;-94.584;2023-08-07T09:53:37;22.10;57.10
62809;DHT22;48848;39.002;-94.584;2023-08-07T09:56:03;22.10;54.30
62809;DHT22;48848;39.002;-94.584;2023-08-07T09:58:29;22.00;52.80
62809;DHT22;48848;39.002;-94.584;2023-08-07T10:00:55;21.80;52.00
62809;DHT22;48848;39.002;-94.584;2023-08-07T10:03:25;21.70;51.60
62809;DHT22;48848;39.002;-94.584;2023-08-07T10:05:51;21.60;51.30
62809;DHT22;48848;39.002;-94.584;2023-08-07T10:08:17;21.50;51.10
62809;DHT22;48848;39.002;-94.584;2023-08-07T10:10:43;21.30;51.40
62809;DHT22;48848;39.002;-94.584;2023-08-07T10:13:11;21.40;53.10
62809;DHT22;48848;39.002;-94.584;2023-08-07T10:15:37;21.40;53.70
62809;DHT22;48848;39.002;-94.584;2023-08-07T10:18:05;21.50;54.50
62809;DHT22;48848;39.002;-94.584;2023-08-07T10:20:31;21.50;55.10
62809;DHT22;48848;39.002;-94.584;2023-08-07T10:23:04;21.50;55.40
62809;DHT22;48848;39.002;-94.584;2023-08-07T10:25:32;21.60;55.60
62809;DHT22;48848;39.002;-94.584;2023-08-07T10:27:58;21.60;55.70
62809;DHT22;48848;39.002;-94.584;2023-08-07T10:30:25;21.60;55.90
62809;DHT22;48848;39.002;-94.584;2023-08-07T10:32:51;21.60;56.00
62809;DHT22;48848;39.002;-94.584;2023-08-07T10:35:51;21.70;56.10
62809;DHT22;48848;39.002;-94.584;2023-08-07T10:38:10;21.70;56.40
62809;DHT22;48848;39.002;-94.584;2023-08-07T10:43:20;21.70;57.10
62809;DHT22;48848;39.002;-94.584;2023-08-07T10:45:49;21.70;57.20
62809;DHT22;48848;39.002;-94.584;2023-08-07T10:48:17;21.70;57.30
62809;DHT22;48848;39.002;-94.584;2023-08-07T10:50:50;21.70;57.50
62809;DHT22;48848;39.002;-94.584;2023-08-07T10:55:55;21.80;57.20
62809;DHT22;48848;39.002;-94.584;2023-08-07T10:58:34;21.80;58.60
62809;DHT22;48848;39.002;-94.584;2023-08-07T11:03:52;21.80;57.70
62809;DHT22;48848;39.002;-94.584;2023-08-07T11:06:21;21.80;57.70
62809;DHT22;48848;39.002;-94.584;2023-08-07T11:08:47;21.80;58.00
62809;DHT22;48848;39.002;-94.584;2023-08-07T11:11:13;21.80;58.30
62809;DHT22;48848;39.002;-94.584;2023-08-07T11:13:39;21.90;58.10
62809;DHT22;48848;39.002;-94.584;2023-08-07T11:16:05;21.90;58.20
62809;DHT22;48848;39.002;-94.584;2023-08-07T11:18:31;21.90;58.10
62809;DHT22;48848;39.002;-94.584;2023-08-07T11:20:58;21.90;58.30
62809;DHT22;48848;39.002;-94.584;2023-08-07T11:23:24;21.90;58.00
62809;DHT22;48848;39.002;-94.584;2023-08-07T11:25:54;21.90;57.90
62809;DHT22;48848;39.002;-94.584;2023-08-07T11:28:20;22.00;57.90
62809;DHT22;48848;39.002;-94.584;2023-08-07T11:30:51;21.90;57.90
62809;DHT22;48848;39.002;-94.584;2023-08-07T11:33:19;22.00;57.90
62809;DHT22;48848;39.002;-94.584;2023-08-07T11:35:46;22.00;58.00
62809;DHT22;48848;39.002;-94.584;2023-08-07T11:38:12;22.00;58.10
62809;DHT22;48848;39.002;-94.584;2023-08-07T11:40:38;22.00;58.50
62809;DHT22;48848;39.002;-94.584;2023-08-07T11:43:04;22.00;58.40
62809;DHT22;48848;39.002;-94.584;2023-08-07T11:45:29;22.00;58.60
62809;DHT22;48848;39.002;-94.584;2023-08-07T11:47:55;22.00;58.40
62809;DHT22;48848;39.002;-94.584;2023-08-07T11:50:27;22.00;58.50
62809;DHT22;48848;39.002;-94.584;2023-08-07T11:52:53;22.00;58.60
62809;DHT22;48848;39.002;-94.584;2023-08-07T11:55:19;22.00;58.80
62809;DHT22;48848;39.002;-94.584;2023-08-07T11:57:46;22.00;58.30
62809;DHT22;48848;39.002;-94.584;2023-08-07T12:00:12;22.10;58.70
62809;DHT22;48848;39.002;-94.584;2023-08-07T12:02:41;22.10;58.60
62809;DHT22;48848;39.002;-94.584;2023-08-07T12:05:08;22.10;58.30
62809;DHT22;48848;39.002;-94.584;2023-08-07T12:07:36;22.10;58.40
62809;DHT22;48848;39.002;-94.584;2023-08-07T12:10:11;22.10;58.40
62809;DHT22;48848;39.002;-94.584;2023-08-07T12:12:37;22.10;58.40
62809;DHT22;48848;39.002;-94.584;2023-08-07T12:15:09;22.10;58.40
62809;DHT22;48848;39.002;-94.584;2023-08-07T12:17:35;22.10;58.20
62809;DHT22;48848;39.002;-94.584;2023-08-07T12:20:03;22.10;58.40
62809;DHT22;48848;39.002;-94.584;2023-08-07T12:22:29;22.10;58.40
62809;DHT22;48848;39.002;-94.584;2023-08-07T12:24:55;22.10;58.50
62809;DHT22;48848;39.002;-94.584;2023-08-07T12:27:21;22.10;58.60
62809;DHT22;48848;39.002;-94.584;2023-08-07T12:29:46;22.10;58.50
62809;DHT22;48848;39.002;-94.584;2023-08-07T12:32:12;22.10;58.40
62809;DHT22;48848;39.002;-94.584;2023-08-07T12:34:38;22.20;58.40
62809;DHT22;48848;39.002;-94.584;2023-08-07T12:37:04;22.10;58.30
62809;DHT22;48848;39.002;-94.584;2023-08-07T12:39:30;22.20;58.50
62809;DHT22;48848;39.002;-94.584;2023-08-07T12:41:56;22.20;58.50
62809;DHT22;48848;39.002;-94.584;2023-08-07T12:44:23;22.20;58.50
62809;DHT22;48848;39.002;-94.584;2023-08-07T12:46:49;22.20;58.60
62809;DHT22;48848;39.002;-94.584;2023-08-07T12:49:15;22.20;58.80
62809;DHT22;48848;39.002;-94.584;2023-08-07T12:51:41;22.20;58.90
62809;DHT22;48848;39.002;-94.584;2023-08-07T12:54:07;22.20;59.00
62809;DHT22;48848;39.002;-94.584;2023-08-07T12:56:33;22.20;59.00
62809;DHT22;48848;39.002;-94.584;2023-08-07T12:58:58;22.20;58.90
62809;DHT22;48848;39.002;-94.584;2023-08-07T13:01:24;22.20;58.80
62809;DHT22;48848;39.002;-94.584;2023-08-07T13:03:52;22.20;59.00
62809;DHT22;48848;39.002;-94.584;2023-08-07T13:06:17;22.20;59.20
62809;DHT22;48848;39.002;-94.584;2023-08-07T13:08:44;22.30;59.60
62809;DHT22;48848;39.002;-94.584;2023-08-07T13:11:11;22.30;59.40
62809;DHT22;48848;39.002;-94.584;2023-08-07T13:13:37;22.30;59.60
62809;DHT22;48848;39.002;-94.584;2023-08-07T13:16:04;22.30;59.70
62809;DHT22;48848;39.002;-94.584;2023-08-07T13:18:30;22.30;59.90
62809;DHT22;48848;39.002;-94.584;2023-08-07T13:20:55;22.30;60.00
62809;DHT22;48848;39.002;-94.584;2023-08-07T13:23:22;22.30;59.80
62809;DHT22;48848;39.002;-94.584;2023-08-07T13:25:48;22.30;59.70
62809;DHT22;48848;39.002;-94.584;2023-08-07T13:28:13;22.40;59.90
62809;DHT22;48848;39.002;-94.584;2023-08-07T13:30:39;22.30;59.80
62809;DHT22;48848;39.002;-94.584;2023-08-07T13:33:06;22.30;59.80
62809;DHT22;48848;39.002;-94.584;2023-08-07T13:35:32;22.30;59.80
62809;DHT22;48848;39.002;-94.584;2023-08-07T13:37:58;22.30;59.80
62809;DHT22;48848;39.002;-94.584;2023-08-07T13:40:24;22.40;59.90
62809;DHT22;48848;39.002;-94.584;2023-08-07T13:42:53;22.40;60.00
62809;DHT22;48848;39.002;-94.584;2023-08-07T13:45:18;22.40;60.00
62809;DHT22;48848;39.002;-94.584;2023-08-07T13:47:45;22.40;60.00
62809;DHT22;48848;39.002;-94.584;2023-08-07T13:50:12;22.40;60.00
62809;DHT22;48848;39.002;-94.584;2023-08-07T13:52:38;22.40;60.00
62809;DHT22;48848;39.002;-94.584;2023-08-07T13:55:04;22.40;60.00
62809;DHT22;48848;39.002;-94.584;2023-08-07T13:57:30;22.40;60.10
62809;DHT22;48848;39.002;-94.584;2023-08-07T13:59:55;22.40;60.00
62809;DHT22;48848;39.002;-94.584;2023-08-07T14:02:21;22.40;59.90
62809;DHT22;48848;39.002;-94.584;2023-08-07T14:04:47;22.40;60.00
62809;DHT22;48848;39.002;-94.584;2023-08-07T14:07:13;22.40;60.50
62809;DHT22;48848;39.002;-94.584;2023-08-07T14:09:39;22.40;60.50
62809;DHT22;48848;39.002;-94.584;2023-08-07T14:12:05;22.40;60.70
62809;DHT22;48848;39.002;-94.584;2023-08-07T14:14:31;22.40;60.80
62809;DHT22;48848;39.002;-94.584;2023-08-07T14:16:57;22.50;60.90
62809;DHT22;48848;39.002;-94.584;2023-08-07T14:19:27;22.40;60.90
62809;DHT22;48848;39.002;-94.584;2023-08-07T14:21:53;22.50;61.10
62809;DHT22;48848;39.002;-94.584;2023-08-07T14:24:19;22.50;61.10
62809;DHT22;48848;39.002;-94.584;2023-08-07T14:26:45;22.50;61.10
62809;DHT22;48848;39.002;-94.584;2023-08-07T14:29:10;22.50;61.10
62809;DHT22;48848;39.002;-94.584;2023-08-07T14:31:36;22.50;61.10
62809;DHT22;48848;39.002;-94.584;2023-08-07T14:34:02;22.50;61.20
62809;DHT22;48848;39.002;-94.584;2023-08-07T14:36:28;22.50;61.30
62809;DHT22;48848;39.002;-94.584;2023-08-07T14:38:54;22.50;61.30
62809;DHT22;48848;39.002;-94.584;2023-08-07T14:41:19;22.50;61.30
62809;DHT22;48848;39.002;-94.584;2023-08-07T14:43:45;22.50;61.40
62809;DHT22;48848;39.002;-94.584;2023-08-07T14:46:12;22.50;61.40
62809;DHT22;48848;39.002;-94.584;2023-08-07T14:48:38;22.50;61.40
62809;DHT22;48848;39.002;-94.584;2023-08-07T14:51:04;22.60;61.60
62809;DHT22;48848;39.002;-94.584;2023-08-07T14:53:31;22.50;61.50
62809;DHT22;48848;39.002;-94.584;2023-08-07T14:55:56;22.50;61.50
62809;DHT22;48848;39.002;-94.584;2023-08-07T14:58:23;22.50;61.50
62809;DHT22;48848;39.002;-94.584;2023-08-07T15:00:48;22.60;61.60
62809;DHT22;48848;39.002;-94.584;2023-08-07T15:03:15;22.50;62.00
62809;DHT22;48848;39.002;-94.584;2023-08-07T15:05:41;22.60;62.00
62809;DHT22;48848;39.002;-94.584;2023-08-07T15:08:07;22.60;61.90